sensor_id;sensor_type;location;lat;lon;timestamp;P1;durP1;ratioP1;P2;durP2;ratioP2
12871;SDS011;6504;53.766;9.626;2023-04-03T00:01:11;4.70;;;2.53;;
12871;SDS011;6504;53.766;9.626;2023-04-03T00:03:39;5.03;;;2.50;;
12871;SDS011;6504;53.766;9.626;2023-04-03T00:06:08;4.63;;;2.90;;
12871;SDS011;6504;53.766;9.626;2023-04-03T00:08:39;4.07;;;2.53;;
12871;SDS011;6504;53.766;9.626;2023-04-03T00:11:07;3.23;;;2.10;;
12871;SDS011;6504;53.766;9.626;2023-04-03T00:13:36;4.37;;;2.00;;
12871;SDS011;6504;53.766;9.626;2023-04-03T00:16:06;3.97;;;2.00;;
12871;SDS011;6504;53.766;9.626;2023-04-03T00:18:34;9.87;;;7.30;;
12871;SDS011;6504;53.766;9.626;2023-04-03T00:21:02;8.07;;;5.70;;
12871;SDS011;6504;53.766;9.626;2023-04-03T00:23:31;2.70;;;2.10;;
12871;SDS011;6504;53.766;9.626;2023-04-03T00:26:00;3.23;;;1.83;;
12871;SDS011;6504;53.766;9.626;2023-04-03T00:28:28;4.17;;;2.03;;
12871;SDS011;6504;53.766;9.626;2023-04-03T00:30:56;2.97;;;1.87;;
12871;SDS011;6504;53.766;9.626;2023-04-03T00:33:24;4.07;;;2.10;;
12871;SDS011;6504;53.766;9.626;2023-04-03T00:35:52;2.53;;;1.70;;
12871;SDS011;6504;53.766;9.626;2023-04-03T00:38:21;4.53;;;2.00;;
12871;SDS011;6504;53.766;9.626;2023-04-03T00:40:49;3.93;;;2.20;;
12871;SDS011;6504;53.766;9.626;2023-04-03T00:43:19;4.80;;;3.17;;
12871;SDS011;6504;53.766;9.626;2023-04-03T00:45:49;7.07;;;4.30;;
12871;SDS011;6504;53.766;9.626;2023-04-03T00:48:20;6.47;;;3.77;;
12871;SDS011;6504;53.766;9.626;2023-04-03T00:50:49;7.37;;;2.63;;
12871;SDS011;6504;53.766;9.626;2023-04-03T00:53:20;4.80;;;2.90;;
12871;SDS011;6504;53.766;9.626;2023-04-03T00:55:51;6.90;;;3.37;;
12871;SDS011;6504;53.766;9.626;2023-04-03T00:58:24;4.93;;;3.57;;
12871;SDS011;6504;53.766;9.626;2023-04-03T01:00:56;6.30;;;4.10;;
12871;SDS011;6504;53.766;9.626;2023-04-03T01:03:26;4.63;;;2.50;;
12871;SDS011;6504;53.766;9.626;2023-04-03T01:05:54;4.17;;;2.33;;
12871;SDS011;6504;53.766;9.626;2023-04-03T01:08:22;4.80;;;2.63;;
12871;SDS011;6504;53.766;9.626;2023-04-03T01:10:50;5.73;;;2.57;;
12871;SDS011;6504;53.766;9.626;2023-04-03T01:13:22;3.30;;;2.50;;
12871;SDS011;6504;53.766;9.626;2023-04-03T01:15:54;3.17;;;2.30;;
12871;SDS011;6504;53.766;9.626;2023-04-03T01:18:22;3.57;;;2.10;;
12871;SDS011;6504;53.766;9.626;2023-04-03T01:23:58;4.57;;;1.90;;
12871;SDS011;6504;53.766;9.626;2023-04-03T01:26:45;3.37;;;2.00;;
12871;SDS011;6504;53.766;9.626;2023-04-03T01:29:15;2.43;;;1.70;;
12871;SDS011;6504;53.766;9.626;2023-04-03T01:31:46;4.03;;;2.13;;
12871;SDS011;6504;53.766;9.626;2023-04-03T01:34:16;3.70;;;2.07;;
12871;SDS011;6504;53.766;9.626;2023-04-03T01:36:44;4.30;;;2.13;;
12871;SDS011;6504;53.766;9.626;2023-04-03T01:39:12;7.53;;;2.43;;
12871;SDS011;6504;53.766;9.626;2023-04-03T01:41:40;3.57;;;2.07;;
12871;SDS011;6504;53.766;9.626;2023-04-03T01:44:08;3.23;;;2.10;;
12871;SDS011;6504;53.766;9.626;2023-04-03T01:46:36;3.23;;;2.07;;
12871;SDS011;6504;53.766;9.626;2023-04-03T01:49:06;2.63;;;1.90;;
12871;SDS011;6504;53.766;9.626;2023-04-03T01:51:34;2.93;;;2.00;;
12871;SDS011;6504;53.766;9.626;2023-04-03T01:54:02;5.80;;;2.30;;
12871;SDS011;6504;53.766;9.626;2023-04-03T01:56:30;3.30;;;1.90;;
12871;SDS011;6504;53.766;9.626;2023-04-03T01:58:58;5.17;;;1.70;;
12871;SDS011;6504;53.766;9.626;2023-04-03T02:01:26;2.50;;;1.73;;
12871;SDS011;6504;53.766;9.626;2023-04-03T02:03:54;4.40;;;2.20;;
12871;SDS011;6504;53.766;9.626;2023-04-03T02:06:24;4.27;;;2.10;;
12871;SDS011;6504;53.766;9.626;2023-04-03T02:08:52;4.47;;;2.13;;
12871;SDS011;6504;53.766;9.626;2023-04-03T02:11:20;2.50;;;1.80;;
12871;SDS011;6504;53.766;9.626;2023-04-03T02:13:48;3.30;;;1.97;;
12871;SDS011;6504;53.766;9.626;2023-04-03T02:16:16;3.30;;;2.07;;
12871;SDS011;6504;53.766;9.626;2023-04-03T02:18:44;3.17;;;1.90;;
12871;SDS011;6504;53.766;9.626;2023-04-03T02:21:12;3.40;;;2.10;;
12871;SDS011;6504;53.766;9.626;2023-04-03T02:23:42;2.30;;;1.90;;
12871;SDS011;6504;53.766;9.626;2023-04-03T02:26:10;3.23;;;2.03;;
12871;SDS011;6504;53.766;9.626;2023-04-03T02:28:40;3.70;;;1.83;;
12871;SDS011;6504;53.766;9.626;2023-04-03T02:31:08;4.70;;;2.30;;
12871;SDS011;6504;53.766;9.626;2023-04-03T02:33:37;2.67;;;1.90;;
12871;SDS011;6504;53.766;9.626;2023-04-03T02:36:06;4.10;;;2.30;;
12871;SDS011;6504;53.766;9.626;2023-04-03T02:38:34;5.27;;;2.00;;
12871;SDS011;6504;53.766;9.626;2023-04-03T02:41:05;2.50;;;2.07;;
12871;SDS011;6504;53.766;9.626;2023-04-03T02:43:34;3.90;;;2.60;;
12871;SDS011;6504;53.766;9.626;2023-04-03T02:46:03;3.23;;;2.30;;
12871;SDS011;6504;53.766;9.626;2023-04-03T02:48:31;4.23;;;2.10;;
12871;SDS011;6504;53.766;9.626;2023-04-03T02:50:59;2.97;;;2.07;;
12871;SDS011;6504;53.766;9.626;2023-04-03T02:53:28;3.30;;;2.17;;
12871;SDS011;6504;53.766;9.626;2023-04-03T02:55:56;2.90;;;2.50;;
12871;SDS011;6504;53.766;9.626;2023-04-03T02:58:25;2.70;;;2.17;;
12871;SDS011;6504;53.766;9.626;2023-04-03T03:00:53;3.53;;;2.10;;
12871;SDS011;6504;53.766;9.626;2023-04-03T03:03:21;2.93;;;2.30;;
12871;SDS011;6504;53.766;9.626;2023-04-03T03:05:49;2.87;;;2.10;;
12871;SDS011;6504;53.766;9.626;2023-04-03T03:08:17;2.37;;;2.00;;
12871;SDS011;6504;53.766;9.626;2023-04-03T03:10:46;4.30;;;2.27;;
12871;SDS011;6504;53.766;9.626;2023-04-03T03:13:14;3.37;;;2.20;;
12871;SDS011;6504;53.766;9.626;2023-04-03T03:15:43;4.30;;;2.43;;
12871;SDS011;6504;53.766;9.626;2023-04-03T03:18:11;4.20;;;2.53;;
12871;SDS011;6504;53.766;9.626;2023-04-03T03:20:39;3.87;;;2.63;;
12871;SDS011;6504;53.766;9.626;2023-04-03T03:23:07;4.33;;;2.10;;
12871;SDS011;6504;53.766;9.626;2023-04-03T03:25:37;3.40;;;2.10;;
12871;SDS011;6504;53.766;9.626;2023-04-03T03:28:05;4.33;;;2.10;;
12871;SDS011;6504;53.766;9.626;2023-04-03T03:30:34;4.53;;;2.63;;
12871;SDS011;6504;53.766;9.626;2023-04-03T03:33:03;3.77;;;2.23;;
12871;SDS011;6504;53.766;9.626;2023-04-03T03:35:32;3.63;;;2.03;;
12871;SDS011;6504;53.766;9.626;2023-04-03T03:38:01;4.00;;;2.13;;
12871;SDS011;6504;53.766;9.626;2023-04-03T03:40:29;3.53;;;2.50;;
12871;SDS011;6504;53.766;9.626;2023-04-03T03:42:57;3.17;;;2.40;;
12871;SDS011;6504;53.766;9.626;2023-04-03T03:45:25;3.70;;;2.13;;
12871;SDS011;6504;53.766;9.626;2023-04-03T03:47:54;3.00;;;2.03;;
12871;SDS011;6504;53.766;9.626;2023-04-03T03:50:23;3.70;;;2.47;;
12871;SDS011;6504;53.766;9.626;2023-04-03T03:52:51;3.80;;;2.30;;
12871;SDS011;6504;53.766;9.626;2023-04-03T03:55:19;3.40;;;2.13;;
12871;SDS011;6504;53.766;9.626;2023-04-03T03:57:47;3.97;;;2.10;;
12871;SDS011;6504;53.766;9.626;2023-04-03T04:00:16;3.93;;;2.43;;
12871;SDS011;6504;53.766;9.626;2023-04-03T04:02:44;3.33;;;2.60;;
12871;SDS011;6504;53.766;9.626;2023-04-03T04:05:12;5.33;;;2.47;;
12871;SDS011;6504;53.766;9.626;2023-04-03T04:07:42;6.17;;;2.57;;
12871;SDS011;6504;53.766;9.626;2023-04-03T04:10:10;3.93;;;2.50;;
12871;SDS011;6504;53.766;9.626;2023-04-03T04:12:39;3.37;;;2.13;;
12871;SDS011;6504;53.766;9.626;2023-04-03T04:15:08;3.37;;;2.30;;
12871;SDS011;6504;53.766;9.626;2023-04-03T04:17:37;4.00;;;2.70;;
12871;SDS011;6504;53.766;9.626;2023-04-03T04:20:05;3.03;;;2.33;;
12871;SDS011;6504;53.766;9.626;2023-04-03T04:22:34;4.83;;;3.20;;
12871;SDS011;6504;53.766;9.626;2023-04-03T04:25:05;4.20;;;2.60;;
12871;SDS011;6504;53.766;9.626;2023-04-03T04:27:34;4.00;;;2.43;;
12871;SDS011;6504;53.766;9.626;2023-04-03T04:30:03;3.80;;;2.43;;
12871;SDS011;6504;53.766;9.626;2023-04-03T04:32:33;3.70;;;2.37;;
12871;SDS011;6504;53.766;9.626;2023-04-03T04:35:02;3.03;;;2.50;;
12871;SDS011;6504;53.766;9.626;2023-04-03T04:37:30;4.67;;;2.37;;
12871;SDS011;6504;53.766;9.626;2023-04-03T04:39:58;4.10;;;2.57;;
12871;SDS011;6504;53.766;9.626;2023-04-03T04:42:27;3.83;;;2.40;;
12871;SDS011;6504;53.766;9.626;2023-04-03T04:44:55;4.17;;;2.50;;
12871;SDS011;6504;53.766;9.626;2023-04-03T04:47:23;4.07;;;2.53;;
12871;SDS011;6504;53.766;9.626;2023-04-03T04:49:51;4.87;;;2.90;;
12871;SDS011;6504;53.766;9.626;2023-04-03T04:52:19;3.30;;;2.63;;
12871;SDS011;6504;53.766;9.626;2023-04-03T04:54:47;3.70;;;2.70;;
12871;SDS011;6504;53.766;9.626;2023-04-03T04:57:16;2.83;;;2.47;;
12871;SDS011;6504;53.766;9.626;2023-04-03T04:59:45;4.13;;;2.67;;
12871;SDS011;6504;53.766;9.626;2023-04-03T05:02:13;6.17;;;2.73;;
12871;SDS011;6504;53.766;9.626;2023-04-03T05:04:41;2.60;;;2.30;;
12871;SDS011;6504;53.766;9.626;2023-04-03T05:07:09;3.20;;;2.50;;
12871;SDS011;6504;53.766;9.626;2023-04-03T05:09:37;3.83;;;2.80;;
12871;SDS011;6504;53.766;9.626;2023-04-03T05:12:08;3.17;;;2.40;;
12871;SDS011;6504;53.766;9.626;2023-04-03T05:14:36;3.40;;;2.60;;
12871;SDS011;6504;53.766;9.626;2023-04-03T05:17:05;4.27;;;2.60;;
12871;SDS011;6504;53.766;9.626;2023-04-03T05:19:33;3.93;;;2.50;;
12871;SDS011;6504;53.766;9.626;2023-04-03T05:22:01;4.57;;;2.53;;
12871;SDS011;6504;53.766;9.626;2023-04-03T05:24:29;3.13;;;2.73;;
12871;SDS011;6504;53.766;9.626;2023-04-03T05:26:57;5.07;;;2.70;;
12871;SDS011;6504;53.766;9.626;2023-04-03T05:29:25;4.03;;;3.17;;
12871;SDS011;6504;53.766;9.626;2023-04-03T05:31:53;5.20;;;3.33;;
12871;SDS011;6504;53.766;9.626;2023-04-03T05:34:23;4.17;;;2.73;;
12871;SDS011;6504;53.766;9.626;2023-04-03T05:36:51;5.73;;;2.97;;
12871;SDS011;6504;53.766;9.626;2023-04-03T05:39:19;6.33;;;2.97;;
12871;SDS011;6504;53.766;9.626;2023-04-03T05:41:48;4.70;;;2.90;;
12871;SDS011;6504;53.766;9.626;2023-04-03T05:44:16;3.47;;;2.93;;
12871;SDS011;6504;53.766;9.626;2023-04-03T05:46:44;6.17;;;3.30;;
12871;SDS011;6504;53.766;9.626;2023-04-03T05:49:12;6.33;;;3.10;;
12871;SDS011;6504;53.766;9.626;2023-04-03T05:51:42;5.53;;;3.20;;
12871;SDS011;6504;53.766;9.626;2023-04-03T05:54:12;4.43;;;3.03;;
12871;SDS011;6504;53.766;9.626;2023-04-03T05:56:43;5.83;;;3.13;;
12871;SDS011;6504;53.766;9.626;2023-04-03T05:59:12;5.07;;;2.73;;
12871;SDS011;6504;53.766;9.626;2023-04-03T06:01:39;3.20;;;2.90;;
12871;SDS011;6504;53.766;9.626;2023-04-03T06:04:08;4.37;;;3.27;;
12871;SDS011;6504;53.766;9.626;2023-04-03T06:06:44;3.60;;;3.17;;
12871;SDS011;6504;53.766;9.626;2023-04-03T06:09:13;5.63;;;3.30;;
12871;SDS011;6504;53.766;9.626;2023-04-03T06:11:42;4.33;;;3.33;;
12871;SDS011;6504;53.766;9.626;2023-04-03T06:14:10;5.00;;;3.40;;
12871;SDS011;6504;53.766;9.626;2023-04-03T06:16:39;5.93;;;3.23;;
12871;SDS011;6504;53.766;9.626;2023-04-03T06:19:07;5.30;;;3.27;;
12871;SDS011;6504;53.766;9.626;2023-04-03T06:21:35;4.87;;;3.33;;
12871;SDS011;6504;53.766;9.626;2023-04-03T06:24:05;4.03;;;3.37;;
12871;SDS011;6504;53.766;9.626;2023-04-03T06:26:34;5.97;;;3.40;;
12871;SDS011;6504;53.766;9.626;2023-04-03T06:29:02;5.83;;;3.47;;
12871;SDS011;6504;53.766;9.626;2023-04-03T06:31:30;7.13;;;3.57;;
12871;SDS011;6504;53.766;9.626;2023-04-03T06:33:59;5.80;;;3.90;;
12871;SDS011;6504;53.766;9.626;2023-04-03T06:36:27;8.07;;;3.63;;
12871;SDS011;6504;53.766;9.626;2023-04-03T06:38:56;6.57;;;3.50;;
12871;SDS011;6504;53.766;9.626;2023-04-03T06:41:25;8.50;;;4.53;;
12871;SDS011;6504;53.766;9.626;2023-04-03T06:43:53;6.07;;;3.60;;
12871;SDS011;6504;53.766;9.626;2023-04-03T06:46:22;5.20;;;4.60;;
12871;SDS011;6504;53.766;9.626;2023-04-03T06:48:51;6.67;;;3.80;;
12871;SDS011;6504;53.766;9.626;2023-04-03T06:51:20;6.67;;;3.97;;
12871;SDS011;6504;53.766;9.626;2023-04-03T06:53:50;6.30;;;3.90;;
12871;SDS011;6504;53.766;9.626;2023-04-03T06:56:19;5.70;;;4.20;;
12871;SDS011;6504;53.766;9.626;2023-04-03T06:58:49;5.57;;;4.43;;
12871;SDS011;6504;53.766;9.626;2023-04-03T07:01:20;5.93;;;3.73;;
12871;SDS011;6504;53.766;9.626;2023-04-03T07:03:48;5.10;;;4.23;;
12871;SDS011;6504;53.766;9.626;2023-04-03T07:06:17;6.43;;;3.60;;
12871;SDS011;6504;53.766;9.626;2023-04-03T07:08:46;6.30;;;3.40;;
12871;SDS011;6504;53.766;9.626;2023-04-03T07:11:15;4.53;;;3.30;;
12871;SDS011;6504;53.766;9.626;2023-04-03T07:13:43;4.57;;;3.80;;
12871;SDS011;6504;53.766;9.626;2023-04-03T07:16:13;4.73;;;2.80;;
12871;SDS011;6504;53.766;9.626;2023-04-03T07:18:41;3.87;;;2.70;;
12871;SDS011;6504;53.766;9.626;2023-04-03T07:21:09;4.73;;;2.60;;
12871;SDS011;6504;53.766;9.626;2023-04-03T07:23:37;3.83;;;2.80;;
12871;SDS011;6504;53.766;9.626;2023-04-03T07:26:06;6.13;;;2.57;;
12871;SDS011;6504;53.766;9.626;2023-04-03T07:28:35;6.50;;;3.13;;
12871;SDS011;6504;53.766;9.626;2023-04-03T07:31:05;4.50;;;2.50;;
12871;SDS011;6504;53.766;9.626;2023-04-03T07:33:38;4.83;;;3.17;;
12871;SDS011;6504;53.766;9.626;2023-04-03T07:36:08;5.67;;;2.33;;
12871;SDS011;6504;53.766;9.626;2023-04-03T07:38:37;3.47;;;2.27;;
12871;SDS011;6504;53.766;9.626;2023-04-03T07:41:05;5.63;;;2.50;;
12871;SDS011;6504;53.766;9.626;2023-04-03T07:43:34;4.13;;;2.50;;
12871;SDS011;6504;53.766;9.626;2023-04-03T07:46:04;5.00;;;2.30;;
12871;SDS011;6504;53.766;9.626;2023-04-03T07:48:34;4.53;;;1.97;;
12871;SDS011;6504;53.766;9.626;2023-04-03T07:51:04;4.57;;;2.00;;
12871;SDS011;6504;53.766;9.626;2023-04-03T07:53:32;4.77;;;1.80;;
12871;SDS011;6504;53.766;9.626;2023-04-03T07:56:01;3.10;;;1.60;;
12871;SDS011;6504;53.766;9.626;2023-04-03T07:58:29;4.40;;;1.90;;
12871;SDS011;6504;53.766;9.626;2023-04-03T08:00:58;2.57;;;1.40;;
12871;SDS011;6504;53.766;9.626;2023-04-03T08:03:26;3.77;;;1.93;;
12871;SDS011;6504;53.766;9.626;2023-04-03T08:05:54;5.07;;;1.80;;
12871;SDS011;6504;53.766;9.626;2023-04-03T08:08:31;3.73;;;1.70;;
12871;SDS011;6504;53.766;9.626;2023-04-03T08:11:00;2.70;;;1.53;;
12871;SDS011;6504;53.766;9.626;2023-04-03T08:13:31;4.17;;;1.60;;
12871;SDS011;6504;53.766;9.626;2023-04-03T08:16:07;2.63;;;1.50;;
12871;SDS011;6504;53.766;9.626;2023-04-03T08:18:36;3.07;;;1.97;;
12871;SDS011;6504;53.766;9.626;2023-04-03T08:21:06;4.30;;;1.77;;
12871;SDS011;6504;53.766;9.626;2023-04-03T08:23:36;3.33;;;1.90;;
12871;SDS011;6504;53.766;9.626;2023-04-03T08:26:05;2.40;;;1.30;;
12871;SDS011;6504;53.766;9.626;2023-04-03T08:28:35;3.43;;;1.30;;
12871;SDS011;6504;53.766;9.626;2023-04-03T08:31:03;4.27;;;1.40;;
12871;SDS011;6504;53.766;9.626;2023-04-03T08:33:34;3.90;;;1.50;;
12871;SDS011;6504;53.766;9.626;2023-04-03T08:36:03;3.23;;;1.40;;
12871;SDS011;6504;53.766;9.626;2023-04-03T08:38:32;3.50;;;1.50;;
12871;SDS011;6504;53.766;9.626;2023-04-03T08:41:07;4.67;;;1.97;;
12871;SDS011;6504;53.766;9.626;2023-04-03T08:43:46;1.87;;;1.20;;
12871;SDS011;6504;53.766;9.626;2023-04-03T08:46:24;4.30;;;1.60;;
12871;SDS011;6504;53.766;9.626;2023-04-03T08:49:03;2.43;;;1.10;;
12871;SDS011;6504;53.766;9.626;2023-04-03T08:51:39;2.97;;;1.33;;
12871;SDS011;6504;53.766;9.626;2023-04-03T08:54:17;1.63;;;1.03;;
12871;SDS011;6504;53.766;9.626;2023-04-03T08:56:53;2.83;;;1.40;;
12871;SDS011;6504;53.766;9.626;2023-04-03T08:59:24;2.10;;;1.07;;
12871;SDS011;6504;53.766;9.626;2023-04-03T09:01:56;1.97;;;1.43;;
12871;SDS011;6504;53.766;9.626;2023-04-03T09:04:28;2.47;;;1.10;;
12871;SDS011;6504;53.766;9.626;2023-04-03T09:07:00;2.30;;;1.20;;
12871;SDS011;6504;53.766;9.626;2023-04-03T09:09:34;1.93;;;1.43;;
12871;SDS011;6504;53.766;9.626;2023-04-03T09:12:10;2.47;;;1.00;;
12871;SDS011;6504;53.766;9.626;2023-04-03T09:14:45;3.50;;;1.10;;
12871;SDS011;6504;53.766;9.626;2023-04-03T09:17:21;2.10;;;1.00;;
12871;SDS011;6504;53.766;9.626;2023-04-03T09:19:58;1.33;;;1.10;;
12871;SDS011;6504;53.766;9.626;2023-04-03T09:22:38;4.03;;;1.20;;
12871;SDS011;6504;53.766;9.626;2023-04-03T09:25:18;2.60;;;1.10;;
12871;SDS011;6504;53.766;9.626;2023-04-03T09:27:51;1.40;;;1.10;;
12871;SDS011;6504;53.766;9.626;2023-04-03T09:30:21;3.23;;;1.30;;
12871;SDS011;6504;53.766;9.626;2023-04-03T09:32:51;4.53;;;1.07;;
12871;SDS011;6504;53.766;9.626;2023-04-03T09:35:21;2.10;;;1.00;;
12871;SDS011;6504;53.766;9.626;2023-04-03T09:38:14;2.07;;;1.20;;
12871;SDS011;6504;53.766;9.626;2023-04-03T09:40:44;1.97;;;1.00;;
12871;SDS011;6504;53.766;9.626;2023-04-03T09:43:25;1.63;;;1.00;;
12871;SDS011;6504;53.766;9.626;2023-04-03T09:45:56;1.67;;;1.00;;
12871;SDS011;6504;53.766;9.626;2023-04-03T09:48:52;2.67;;;1.23;;
12871;SDS011;6504;53.766;9.626;2023-04-03T09:51:34;2.47;;;1.20;;
12871;SDS011;6504;53.766;9.626;2023-04-03T09:54:04;1.87;;;1.17;;
12871;SDS011;6504;53.766;9.626;2023-04-03T09:56:53;2.53;;;1.17;;
12871;SDS011;6504;53.766;9.626;2023-04-03T09:59:24;1.83;;;1.20;;
12871;SDS011;6504;53.766;9.626;2023-04-03T10:01:58;1.10;;;0.97;;
12871;SDS011;6504;53.766;9.626;2023-04-03T10:04:37;2.10;;;1.30;;
12871;SDS011;6504;53.766;9.626;2023-04-03T10:09:55;1.93;;;1.30;;
12871;SDS011;6504;53.766;9.626;2023-04-03T10:12:24;2.70;;;1.10;;
12871;SDS011;6504;53.766;9.626;2023-04-03T10:14:57;3.23;;;0.90;;
12871;SDS011;6504;53.766;9.626;2023-04-03T10:17:30;2.57;;;1.10;;
12871;SDS011;6504;53.766;9.626;2023-04-03T10:20:07;2.20;;;1.30;;
12871;SDS011;6504;53.766;9.626;2023-04-03T10:22:52;1.97;;;1.10;;
12871;SDS011;6504;53.766;9.626;2023-04-03T10:25:30;2.60;;;1.27;;
12871;SDS011;6504;53.766;9.626;2023-04-03T10:28:08;2.37;;;1.20;;
12871;SDS011;6504;53.766;9.626;2023-04-03T10:30:48;2.90;;;1.33;;
12871;SDS011;6504;53.766;9.626;2023-04-03T10:33:31;4.33;;;1.40;;
12871;SDS011;6504;53.766;9.626;2023-04-03T10:36:10;2.27;;;1.20;;
12871;SDS011;6504;53.766;9.626;2023-04-03T10:38:48;3.30;;;1.60;;
12871;SDS011;6504;53.766;9.626;2023-04-03T10:41:24;2.33;;;1.30;;
12871;SDS011;6504;53.766;9.626;2023-04-03T10:44:03;2.70;;;1.20;;
12871;SDS011;6504;53.766;9.626;2023-04-03T10:46:43;3.23;;;1.23;;
12871;SDS011;6504;53.766;9.626;2023-04-03T10:49:21;1.63;;;1.20;;
12871;SDS011;6504;53.766;9.626;2023-04-03T10:51:56;2.40;;;1.20;;
12871;SDS011;6504;53.766;9.626;2023-04-03T10:54:33;3.03;;;1.20;;
12871;SDS011;6504;53.766;9.626;2023-04-03T10:57:06;2.90;;;1.23;;
12871;SDS011;6504;53.766;9.626;2023-04-03T10:59:40;1.63;;;1.10;;
12871;SDS011;6504;53.766;9.626;2023-04-03T11:02:13;3.27;;;1.37;;
12871;SDS011;6504;53.766;9.626;2023-04-03T11:04:50;3.17;;;1.33;;
12871;SDS011;6504;53.766;9.626;2023-04-03T11:07:21;2.50;;;1.10;;
12871;SDS011;6504;53.766;9.626;2023-04-03T11:09:54;2.00;;;1.40;;
12871;SDS011;6504;53.766;9.626;2023-04-03T11:12:27;3.87;;;1.70;;
12871;SDS011;6504;53.766;9.626;2023-04-03T11:15:02;2.60;;;1.33;;
12871;SDS011;6504;53.766;9.626;2023-04-03T11:17:35;2.23;;;1.40;;
12871;SDS011;6504;53.766;9.626;2023-04-03T11:20:13;2.77;;;1.10;;
12871;SDS011;6504;53.766;9.626;2023-04-03T11:22:45;3.70;;;1.30;;
12871;SDS011;6504;53.766;9.626;2023-04-03T11:25:19;1.43;;;1.10;;
12871;SDS011;6504;53.766;9.626;2023-04-03T11:27:50;2.23;;;1.30;;
12871;SDS011;6504;53.766;9.626;2023-04-03T11:30:23;2.60;;;1.47;;
12871;SDS011;6504;53.766;9.626;2023-04-03T11:33:03;3.80;;;1.40;;
12871;SDS011;6504;53.766;9.626;2023-04-03T11:35:42;2.53;;;1.10;;
12871;SDS011;6504;53.766;9.626;2023-04-03T11:38:14;2.67;;;1.30;;
12871;SDS011;6504;53.766;9.626;2023-04-03T11:40:48;2.47;;;1.27;;
12871;SDS011;6504;53.766;9.626;2023-04-03T11:43:21;3.03;;;1.20;;
12871;SDS011;6504;53.766;9.626;2023-04-03T11:45:53;5.13;;;1.43;;
12871;SDS011;6504;53.766;9.626;2023-04-03T11:51:38;3.67;;;1.20;;
12871;SDS011;6504;53.766;9.626;2023-04-03T12:03:30;2.87;;;1.40;;
12871;SDS011;6504;53.766;9.626;2023-04-03T12:09:04;1.53;;;1.23;;
12871;SDS011;6504;53.766;9.626;2023-04-03T12:11:54;2.37;;;1.40;;
12871;SDS011;6504;53.766;9.626;2023-04-03T12:14:24;3.63;;;1.47;;
12871;SDS011;6504;53.766;9.626;2023-04-03T12:16:53;2.00;;;1.43;;
12871;SDS011;6504;53.766;9.626;2023-04-03T12:19:29;2.43;;;1.47;;
12871;SDS011;6504;53.766;9.626;2023-04-03T12:22:12;4.20;;;1.37;;
12871;SDS011;6504;53.766;9.626;2023-04-03T12:24:44;3.40;;;1.50;;
12871;SDS011;6504;53.766;9.626;2023-04-03T12:27:20;1.77;;;1.20;;
12871;SDS011;6504;53.766;9.626;2023-04-03T12:30:03;3.30;;;1.23;;
12871;SDS011;6504;53.766;9.626;2023-04-03T12:32:48;3.30;;;1.50;;
12871;SDS011;6504;53.766;9.626;2023-04-03T12:35:38;2.87;;;1.50;;
12871;SDS011;6504;53.766;9.626;2023-04-03T12:38:16;2.83;;;1.63;;
12871;SDS011;6504;53.766;9.626;2023-04-03T12:41:03;2.90;;;1.27;;
12871;SDS011;6504;53.766;9.626;2023-04-03T12:43:50;1.90;;;1.30;;
12871;SDS011;6504;53.766;9.626;2023-04-03T12:46:26;2.93;;;1.30;;
12871;SDS011;6504;53.766;9.626;2023-04-03T12:49:01;2.67;;;1.43;;
12871;SDS011;6504;53.766;9.626;2023-04-03T12:51:42;4.47;;;1.60;;
12871;SDS011;6504;53.766;9.626;2023-04-03T12:54:13;2.97;;;1.40;;
12871;SDS011;6504;53.766;9.626;2023-04-03T12:56:45;2.60;;;1.50;;
12871;SDS011;6504;53.766;9.626;2023-04-03T12:59:14;1.70;;;1.40;;
12871;SDS011;6504;53.766;9.626;2023-04-03T13:01:43;2.03;;;1.40;;
12871;SDS011;6504;53.766;9.626;2023-04-03T13:04:19;3.37;;;1.40;;
12871;SDS011;6504;53.766;9.626;2023-04-03T13:06:48;2.03;;;1.40;;
12871;SDS011;6504;53.766;9.626;2023-04-03T13:09:18;2.10;;;1.27;;
12871;SDS011;6504;53.766;9.626;2023-04-03T13:11:51;2.30;;;1.20;;
12871;SDS011;6504;53.766;9.626;2023-04-03T13:14:25;1.40;;;1.20;;
12871;SDS011;6504;53.766;9.626;2023-04-03T13:16:55;1.43;;;1.07;;
12871;SDS011;6504;53.766;9.626;2023-04-03T13:19:25;1.67;;;1.13;;
12871;SDS011;6504;53.766;9.626;2023-04-03T13:21:57;1.83;;;1.20;;
12871;SDS011;6504;53.766;9.626;2023-04-03T13:24:29;2.60;;;1.27;;
12871;SDS011;6504;53.766;9.626;2023-04-03T13:27:01;3.00;;;1.33;;
12871;SDS011;6504;53.766;9.626;2023-04-03T13:29:31;3.33;;;1.40;;
12871;SDS011;6504;53.766;9.626;2023-04-03T13:32:02;2.93;;;1.37;;
12871;SDS011;6504;53.766;9.626;2023-04-03T13:34:36;2.13;;;1.47;;
12871;SDS011;6504;53.766;9.626;2023-04-03T13:37:05;3.10;;;1.27;;
12871;SDS011;6504;53.766;9.626;2023-04-03T13:39:36;2.27;;;1.10;;
12871;SDS011;6504;53.766;9.626;2023-04-03T13:42:16;1.47;;;1.20;;
12871;SDS011;6504;53.766;9.626;2023-04-03T13:44:49;2.93;;;1.60;;
12871;SDS011;6504;53.766;9.626;2023-04-03T13:47:37;1.60;;;1.10;;
12871;SDS011;6504;53.766;9.626;2023-04-03T13:50:19;2.43;;;1.27;;
12871;SDS011;6504;53.766;9.626;2023-04-03T13:52:51;2.40;;;1.30;;
12871;SDS011;6504;53.766;9.626;2023-04-03T13:55:21;1.90;;;1.13;;
12871;SDS011;6504;53.766;9.626;2023-04-03T13:58:19;1.83;;;1.27;;
12871;SDS011;6504;53.766;9.626;2023-04-03T14:00:50;2.17;;;1.30;;
12871;SDS011;6504;53.766;9.626;2023-04-03T14:03:21;2.83;;;1.40;;
12871;SDS011;6504;53.766;9.626;2023-04-03T14:05:52;3.10;;;1.43;;
12871;SDS011;6504;53.766;9.626;2023-04-03T14:08:21;3.70;;;1.40;;
12871;SDS011;6504;53.766;9.626;2023-04-03T14:11:08;3.10;;;1.57;;
12871;SDS011;6504;53.766;9.626;2023-04-03T14:13:43;1.90;;;1.40;;
12871;SDS011;6504;53.766;9.626;2023-04-03T14:16:13;4.37;;;1.60;;
12871;SDS011;6504;53.766;9.626;2023-04-03T14:18:44;2.67;;;1.20;;
12871;SDS011;6504;53.766;9.626;2023-04-03T14:21:13;3.13;;;1.47;;
12871;SDS011;6504;53.766;9.626;2023-04-03T14:23:42;3.10;;;1.53;;
12871;SDS011;6504;53.766;9.626;2023-04-03T14:26:12;3.90;;;1.60;;
12871;SDS011;6504;53.766;9.626;2023-04-03T14:28:44;3.47;;;1.60;;
12871;SDS011;6504;53.766;9.626;2023-04-03T14:31:13;2.73;;;1.47;;
12871;SDS011;6504;53.766;9.626;2023-04-03T14:33:42;2.07;;;1.37;;
12871;SDS011;6504;53.766;9.626;2023-04-03T14:36:11;2.93;;;1.40;;
12871;SDS011;6504;53.766;9.626;2023-04-03T14:38:41;3.70;;;1.57;;
12871;SDS011;6504;53.766;9.626;2023-04-03T14:41:11;2.50;;;1.50;;
12871;SDS011;6504;53.766;9.626;2023-04-03T14:43:44;3.03;;;1.40;;
12871;SDS011;6504;53.766;9.626;2023-04-03T14:46:14;2.17;;;1.40;;
12871;SDS011;6504;53.766;9.626;2023-04-03T14:48:45;2.67;;;1.40;;
12871;SDS011;6504;53.766;9.626;2023-04-03T14:51:13;3.07;;;1.47;;
12871;SDS011;6504;53.766;9.626;2023-04-03T14:53:43;3.27;;;1.40;;
12871;SDS011;6504;53.766;9.626;2023-04-03T14:56:12;3.20;;;1.60;;
12871;SDS011;6504;53.766;9.626;2023-04-03T14:58:41;2.63;;;1.40;;
12871;SDS011;6504;53.766;9.626;2023-04-03T15:01:15;3.87;;;1.60;;
12871;SDS011;6504;53.766;9.626;2023-04-03T15:03:43;3.87;;;1.70;;
12871;SDS011;6504;53.766;9.626;2023-04-03T15:06:12;3.53;;;1.83;;
12871;SDS011;6504;53.766;9.626;2023-04-03T15:08:41;2.07;;;1.40;;
12871;SDS011;6504;53.766;9.626;2023-04-03T15:11:10;3.33;;;2.00;;
12871;SDS011;6504;53.766;9.626;2023-04-03T15:13:39;4.50;;;2.00;;
12871;SDS011;6504;53.766;9.626;2023-04-03T15:16:12;2.13;;;1.60;;
12871;SDS011;6504;53.766;9.626;2023-04-03T15:18:44;2.33;;;1.73;;
12871;SDS011;6504;53.766;9.626;2023-04-03T15:21:13;2.73;;;1.63;;
12871;SDS011;6504;53.766;9.626;2023-04-03T15:23:42;2.57;;;1.47;;
12871;SDS011;6504;53.766;9.626;2023-04-03T15:26:10;2.87;;;1.67;;
12871;SDS011;6504;53.766;9.626;2023-04-03T15:28:39;3.63;;;1.53;;
12871;SDS011;6504;53.766;9.626;2023-04-03T15:31:10;4.27;;;1.60;;
12871;SDS011;6504;53.766;9.626;2023-04-03T15:33:39;4.50;;;1.57;;
12871;SDS011;6504;53.766;9.626;2023-04-03T15:36:07;3.13;;;1.40;;
12871;SDS011;6504;53.766;9.626;2023-04-03T15:38:56;3.53;;;1.93;;
12871;SDS011;6504;53.766;9.626;2023-04-03T15:41:32;2.80;;;1.80;;
12871;SDS011;6504;53.766;9.626;2023-04-03T15:44:00;2.50;;;1.47;;
12871;SDS011;6504;53.766;9.626;2023-04-03T15:46:28;2.70;;;1.70;;